Time;durP1;ratioP1;P1;durP2;ratioP2;P2;SDS_P1;SDS_P2;PMS_P1;PMS_P2;Temp;Humidity;BMP_temperature;BMP_pressure;BME280_temperature;BME280_humidity;BME280_pressure;Samples;Min_cycle;Max_cycle;Signal;HPM_P1;HPM_P2
2023/06/05 00:02:10;;;;;;;3.78;1.75;;;;;;;15.61;40.51;98406.59;5026047;28;20052;-75
2023/06/05 00:04:39;;;;;;;3.55;1.80;;;;;;;15.57;40.36;98400.06;5030750;28;20143;-75
2023/06/05 00:07:05;;;;;;;3.13;2.08;;;;;;;15.74;39.96;98404.16;5020210;28;20036;-76
2023/06/05 00:09:30;;;;;;;3.63;1.95;;;;;;;15.79;39.82;98404.16;5035696;28;20020;-75
2023/06/05 00:11:55;;;;;;;4.20;1.92;;;;;;;15.56;40.46;98398.44;5018298;28;20059;-76
2023/06/05 00:14:21;;;;;;;4.30;2.13;;;;;;;15.72;40.14;98410.94;5021116;28;20486;-74
2023/06/05 00:16:46;;;;;;;4.00;2.05;;;;;;;15.51;41.11;98406.59;5042633;28;20167;-75
2023/06/05 00:19:12;;;;;;;2.67;1.98;;;;;;;15.43;41.12;98393.50;5031139;28;20406;-74
2023/06/05 00:21:37;;;;;;;3.05;1.60;;;;;;;15.34;40.79;98392.41;5068393;28;20115;-74
2023/06/05 00:24:03;;;;;;;2.83;1.90;;;;;;;15.22;41.53;98404.34;5037027;28;20031;-74
2023/06/05 00:26:28;;;;;;;4.30;1.80;;;;;;;15.40;40.61;98402.22;5057450;28;20364;-74
2023/06/05 00:28:54;;;;;;;2.30;1.90;;;;;;;15.39;41.22;98408.72;5048898;28;20472;-74
2023/06/05 00:31:21;;;;;;;2.67;1.80;;;;;;;15.49;40.53;98408.75;5051019;28;20544;-75
2023/06/05 00:33:46;;;;;;;1.98;1.77;;;;;;;15.49;40.63;98395.19;5022807;28;20110;-75
2023/06/05 00:36:12;;;;;;;2.97;1.60;;;;;;;15.71;40.58;98401.16;5006412;28;20064;-74
2023/06/05 00:38:37;;;;;;;3.83;1.70;;;;;;;15.33;41.02;98404.38;5019110;28;20106;-73
2023/06/05 00:41:03;;;;;;;2.67;1.90;;;;;;;15.41;40.70;98398.41;5007134;28;20033;-75
2023/06/05 00:43:28;;;;;;;2.85;1.70;;;;;;;15.38;41.26;98391.59;5043755;28;20027;-74
2023/06/05 00:45:59;;;;;;;3.10;2.00;;;;;;;15.31;40.29;98390.25;5027962;28;20464;-73
2023/06/05 00:48:25;;;;;;;3.65;2.00;;;;;;;15.64;40.00;98387.03;5016453;28;20043;-73
2023/06/05 00:50:50;;;;;;;3.15;1.83;;;;;;;15.49;41.08;98397.91;5014805;28;20581;-74
2023/06/05 00:53:15;;;;;;;3.63;1.88;;;;;;;15.43;40.44;98377.22;5028407;28;20090;-74
2023/06/05 00:55:41;;;;;;;2.90;2.05;;;;;;;15.42;40.79;98397.31;5018465;28;20079;-73
2023/06/05 00:58:07;;;;;;;4.10;1.98;;;;;;;15.54;40.45;98408.78;5026819;28;20029;-73
2023/06/05 01:00:34;;;;;;;2.40;1.80;;;;;;;15.45;40.64;98394.09;5045244;28;20025;-75
2023/06/05 01:02:59;;;;;;;3.53;1.75;;;;;;;15.50;40.16;98400.34;5019954;28;20051;-73
2023/06/05 01:05:26;;;;;;;2.30;1.60;;;;;;;15.26;41.75;98395.69;5024448;28;20021;-73
2023/06/05 01:07:53;;;;;;;3.30;1.73;;;;;;;14.86;44.23;98399.94;5006019;28;20076;-72
2023/06/05 01:10:26;;;;;;;5.30;2.08;;;;;;;14.72;43.79;98401.53;5036058;28;20041;-74
2023/06/05 01:13:01;;;;;;;2.08;1.75;;;;;;;14.82;43.52;98400.75;5008711;28;20119;-74
2023/06/05 01:15:33;;;;;;;3.92;1.80;;;;;;;14.19;45.50;98382.81;5042543;28;20102;-73
2023/06/05 01:18:10;;;;;;;2.53;1.88;;;;;;;14.63;43.50;98394.97;5030696;28;20044;-73
2023/06/05 01:21:14;;;;;;;1.98;1.80;;;;;;;15.21;42.54;98386.47;5030183;28;20150;-73
2023/06/05 01:23:45;;;;;;;3.05;1.90;;;;;;;14.59;44.09;98393.84;5009075;28;20033;-74
2023/06/05 01:33:31;;;;;;;3.45;2.08;;;;;;;13.52;47.43;98386.16;4964977;28;20095;-75
2023/06/05 01:36:04;;;;;;;2.67;2.08;;;;;;;13.70;48.40;98409.28;5004490;28;20099;-75
2023/06/05 01:38:31;;;;;;;2.97;2.20;;;;;;;13.61;49.25;98408.13;5015824;28;20029;-74
2023/06/05 01:40:57;;;;;;;2.95;1.90;;;;;;;13.36;48.90;98406.03;5001393;28;20048;-74
2023/06/05 01:43:22;;;;;;;2.17;1.90;;;;;;;13.65;47.80;98409.28;4984609;28;20475;-73
2023/06/05 01:45:48;;;;;;;3.38;1.88;;;;;;;13.64;47.94;98408.44;5035731;28;20033;-74
2023/06/05 01:51:54;;;;;;;;;;;;;;;;;;;;;
2023/06/05 01:58:37;;;;;;;4.95;1.85;;;;;;;12.95;50.31;98404.78;4965318;28;20089;-75
2023/06/05 02:01:03;;;;;;;3.25;2.00;;;;;;;12.98;51.80;98408.84;4994959;28;20036;-74
2023/06/05 02:03:28;;;;;;;3.00;2.05;;;;;;;12.97;50.80;98412.66;5010268;28;20041;-75
2023/06/05 02:05:54;;;;;;;2.85;2.08;;;;;;;12.69;51.93;98402.06;5033142;28;20027;-74
2023/06/05 02:08:22;;;;;;;1.98;1.75;;;;;;;12.82;51.27;98407.06;4994310;28;20116;-75
2023/06/05 02:10:52;;;;;;;4.30;2.08;;;;;;;12.38;53.81;98396.28;5020133;28;20079;-75
2023/06/05 02:13:23;;;;;;;2.97;1.92;;;;;;;12.08;54.00;98392.38;5020171;28;20037;-75
2023/06/05 02:15:52;;;;;;;5.13;2.00;;;;;;;12.53;52.42;98384.03;5007327;28;20119;-75
2023/06/05 02:18:17;;;;;;;3.67;1.80;;;;;;;12.86;51.77;98400.91;5042766;28;20025;-75
2023/06/05 02:20:42;;;;;;;2.90;2.15;;;;;;;12.68;52.62;98392.31;5029925;28;20052;-74
2023/06/05 02:23:09;;;;;;;3.25;2.20;;;;;;;12.63;52.66;98394.94;5045085;28;20485;-74
2023/06/05 02:25:35;;;;;;;3.78;2.13;;;;;;;11.99;53.76;98383.88;5006405;28;20029;-74
2023/06/05 02:28:00;;;;;;;3.47;2.15;;;;;;;12.60;52.26;98393.59;5007926;28;20627;-74
2023/06/05 02:30:26;;;;;;;3.08;1.73;;;;;;;12.59;52.36;98383.84;5029254;28;20048;-74
2023/06/05 02:32:56;;;;;;;3.25;1.70;;;;;;;12.77;52.66;98390.78;4983209;28;20017;-75
2023/06/05 02:35:23;;;;;;;5.60;2.25;;;;;;;11.69;55.33;98388.84;5012732;28;20026;-74
2023/06/05 02:37:49;;;;;;;3.88;2.08;;;;;;;11.90;55.09;98390.78;4999356;28;20395;-75
2023/06/05 02:40:15;;;;;;;5.70;2.10;;;;;;;11.51;56.60;98402.53;5013021;28;20467;-74
2023/06/05 02:42:41;;;;;;;3.10;2.08;;;;;;;11.19;57.98;98399.56;5027547;28;20102;-74
2023/06/05 02:45:07;;;;;;;2.17;1.83;;;;;;;11.56;56.87;98392.66;5021743;28;20089;-74
2023/06/05 02:47:33;;;;;;;3.35;2.05;;;;;;;11.75;56.71;98387.84;5007283;28;20387;-74
2023/06/05 02:50:00;;;;;;;2.83;1.95;;;;;;;12.00;55.92;98385.50;5012502;28;20029;-74
2023/06/05 02:52:27;;;;;;;2.88;1.90;;;;;;;11.66;56.67;98387.41;5011354;28;20475;-75
2023/06/05 02:54:53;;;;;;;2.72;2.22;;;;;;;11.84;56.07;98369.34;4983568;28;20080;-75
2023/06/05 02:57:19;;;;;;;2.35;1.80;;;;;;;12.03;55.66;98382.31;5011722;28;20024;-74
2023/06/05 02:59:46;;;;;;;6.22;2.00;;;;;;;11.62;56.56;98388.16;5005986;28;20029;-74
2023/06/05 03:02:15;;;;;;;3.10;2.30;;;;;;;11.86;56.81;98378.81;5022840;28;20029;-73
2023/06/05 03:04:43;;;;;;;3.70;2.20;;;;;;;11.39;58.44;98383.72;4992752;28;20025;-73
2023/06/05 03:07:09;;;;;;;2.40;1.92;;;;;;;11.80;56.66;98385.22;5021761;28;20026;-74
2023/06/05 03:09:37;;;;;;;4.53;2.05;;;;;;;11.20;58.34;98382.34;4996134;28;20575;-74
2023/06/05 03:12:03;;;;;;;4.97;2.28;;;;;;;11.44;57.07;98383.00;5012276;28;20120;-76
2023/06/05 03:14:32;;;;;;;5.25;2.10;;;;;;;11.85;56.38;98381.78;5011220;28;20068;-75
2023/06/05 03:16:58;;;;;;;2.75;2.13;;;;;;;12.00;55.90;98380.09;5012109;28;20028;-76
2023/06/05 03:19:25;;;;;;;2.97;2.10;;;;;;;11.88;57.43;98379.38;4999163;28;20041;-75
2023/06/05 03:21:53;;;;;;;5.38;2.38;;;;;;;11.86;57.38;98383.41;5034998;28;20028;-73
2023/06/05 03:24:19;;;;;;;2.67;2.20;;;;;;;11.93;57.06;98386.75;5010831;28;20033;-74
2023/06/05 03:26:50;;;;;;;2.95;2.25;;;;;;;11.68;58.05;98381.78;5012225;28;20037;-74
2023/06/05 03:29:15;;;;;;;3.70;2.20;;;;;;;11.57;58.38;98390.78;5014916;28;20083;-74
2023/06/05 03:31:42;;;;;;;3.42;2.15;;;;;;;11.94;57.53;98380.28;5012224;28;20031;-74
2023/06/05 03:34:08;;;;;;;3.88;2.05;;;;;;;11.85;57.26;98381.78;5006404;28;20029;-73
2023/06/05 03:36:34;;;;;;;3.35;2.00;;;;;;;11.81;55.89;98381.44;5005187;28;20044;-74
2023/06/05 03:39:03;;;;;;;2.80;2.00;;;;;;;12.16;55.37;98389.25;5025865;28;20091;-74
2023/06/05 03:41:29;;;;;;;3.85;2.20;;;;;;;11.98;57.16;98389.50;4995526;28;20068;-73
2023/06/05 03:43:56;;;;;;;2.55;2.25;;;;;;;12.34;55.62;98391.66;5023061;28;20064;-73
2023/06/05 03:46:23;;;;;;;3.10;2.20;;;;;;;12.26;57.03;98395.59;5002059;28;20017;-73
2023/06/05 03:48:53;;;;;;;2.88;2.28;;;;;;;12.25;56.19;98388.53;5009161;28;20552;-73
2023/06/05 03:51:19;;;;;;;3.72;2.20;;;;;;;12.38;54.63;98385.50;5011742;28;20060;-74
2023/06/05 03:53:45;;;;;;;4.45;2.10;;;;;;;12.32;56.34;98394.56;4984273;28;20042;-75
2023/06/05 03:56:15;;;;;;;4.95;2.20;;;;;;;12.40;56.40;98399.56;5000223;28;20056;-74
2023/06/05 03:58:41;;;;;;;4.30;2.60;;;;;;;12.36;55.85;98379.53;5069289;23;20037;-75
2023/06/05 04:01:07;;;;;;;3.22;2.20;;;;;;;12.43;55.88;98395.53;5001487;28;20384;-75
2023/06/05 04:03:37;;;;;;;3.03;2.15;;;;;;;12.77;54.10;98396.19;5006696;28;20029;-72
2023/06/05 04:06:04;;;;;;;3.90;2.17;;;;;;;12.87;53.99;98399.00;5022862;28;20407;-75
2023/06/05 04:08:29;;;;;;;3.15;2.10;;;;;;;12.68;55.23;98408.53;4995763;28;20033;-74
2023/06/05 04:10:55;;;;;;;2.72;2.10;;;;;;;12.74;56.13;98402.13;5027528;28;20036;-75
2023/06/05 04:13:21;;;;;;;4.00;2.10;;;;;;;12.92;55.14;98404.47;5018848;28;20032;-75
2023/06/05 04:15:48;;;;;;;3.83;2.22;;;;;;;12.78;54.81;98403.25;5040543;28;20052;-75
2023/06/05 04:18:14;;;;;;;3.97;2.30;;;;;;;12.92;55.37;98410.72;5028821;28;20028;-74
2023/06/05 04:20:40;;;;;;;4.75;2.30;;;;;;;12.63;54.81;98400.34;5035303;28;20816;-71
2023/06/05 04:23:07;;;;;;;3.60;2.28;;;;;;;12.75;54.18;98398.34;5033241;28;20021;-72
2023/06/05 04:25:35;;;;;;;5.22;2.22;;;;;;;12.53;53.65;98401.06;5039792;28;20085;-75
2023/06/05 04:28:01;;;;;;;3.58;2.13;;;;;;;12.72;53.02;98405.06;5041909;28;20036;-75
2023/06/05 04:30:27;;;;;;;3.92;2.40;;;;;;;12.59;52.84;98404.63;5022855;28;20469;-74
2023/06/05 04:32:55;;;;;;;4.18;1.92;;;;;;;12.70;53.51;98398.28;5038549;28;20021;-75
2023/06/05 04:35:23;;;;;;;4.05;2.35;;;;;;;13.02;54.17;98410.81;5037126;28;20052;-74
2023/06/05 04:37:48;;;;;;;2.55;1.80;;;;;;;13.35;53.61;98403.59;5045266;28;20055;-75
2023/06/05 04:40:17;;;;;;;2.70;1.92;;;;;;;13.14;54.13;98391.75;5029508;28;20036;-75
2023/06/05 04:42:42;;;;;;;3.38;2.53;;;;;;;13.39;53.17;98400.13;5016237;28;20021;-75
2023/06/05 04:45:09;;;;;;;4.80;2.15;;;;;;;13.54;53.83;98411.06;5026485;28;20566;-76
2023/06/05 04:47:37;;;;;;;3.10;2.20;;;;;;;13.23;52.95;98403.75;5040085;28;20024;-75
2023/06/05 04:50:04;;;;;;;4.25;2.30;;;;;;;13.34;54.61;98407.38;5056260;28;20056;-75
2023/06/05 04:52:31;;;;;;;4.65;2.65;;;;;;;13.46;54.23;98399.91;5011003;28;20029;-75
2023/06/05 04:54:57;;;;;;;2.55;1.80;;;;;;;13.46;54.58;98406.13;5032217;28;20033;-75
2023/06/05 04:57:25;;;;;;;4.28;2.22;;;;;;;13.19;54.07;98410.72;5026628;28;20025;-75
2023/06/05 04:59:52;;;;;;;3.20;2.20;;;;;;;13.01;57.01;98397.53;5021154;28;20609;-75
2023/06/05 05:02:18;;;;;;;2.70;2.08;;;;;;;12.96;55.45;98400.19;5044673;28;20020;-75
2023/06/05 05:04:44;;;;;;;2.63;1.95;;;;;;;13.52;54.10;98404.28;5024314;28;20029;-75
2023/06/05 05:07:15;;;;;;;2.85;2.13;;;;;;;13.49;55.21;98405.59;5043588;28;20146;-75
2023/06/05 05:09:41;;;;;;;2.40;1.85;;;;;;;13.65;55.04;98407.34;5028985;28;20028;-75
2023/06/05 05:12:07;;;;;;;2.95;2.17;;;;;;;13.68;54.97;98406.84;5056076;28;20024;-75
2023/06/05 05:14:32;;;;;;;4.20;2.33;;;;;;;13.97;54.60;98395.69;5027989;28;20029;-75
2023/06/05 05:16:58;;;;;;;2.97;2.30;;;;;;;13.84;51.88;98391.53;5046945;28;20151;-75
2023/06/05 05:19:23;;;;;;;3.95;2.38;;;;;;;13.90;53.19;98390.50;5049061;28;20380;-75
2023/06/05 05:21:49;;;;;;;3.15;2.20;;;;;;;13.97;52.76;98399.22;5049234;28;20071;-75
2023/06/05 05:24:15;;;;;;;3.20;2.05;;;;;;;13.94;52.70;98394.31;5026488;28;20056;-74
2023/06/05 05:26:41;;;;;;;3.35;2.22;;;;;;;13.66;53.99;98406.28;5042825;28;20107;-74
2023/06/05 05:29:07;;;;;;;4.47;2.33;;;;;;;13.87;54.56;98401.84;5040883;28;20546;-75
2023/06/05 05:31:34;;;;;;;3.08;2.30;;;;;;;14.15;53.07;98397.94;5043123;28;20494;-75
2023/06/05 05:34:00;;;;;;;5.75;2.03;;;;;;;14.21;53.15;98397.72;5027104;28;20036;-75
2023/06/05 05:36:26;;;;;;;5.28;2.22;;;;;;;14.24;52.76;98396.38;5029666;28;20104;-75
2023/06/05 05:38:53;;;;;;;2.75;2.00;;;;;;;14.40;52.48;98396.22;5027690;28;20079;-75
2023/06/05 05:41:18;;;;;;;2.90;2.17;;;;;;;14.46;51.14;98400.59;5039940;28;20035;-74
2023/06/05 05:43:44;;;;;;;4.25;2.20;;;;;;;14.59;51.72;98404.69;5029152;28;20025;-74
2023/06/05 05:46:09;;;;;;;4.35;2.60;;;;;;;14.45;50.41;98408.97;5023465;28;20029;-74
2023/06/05 05:48:35;;;;;;;4.47;2.00;;;;;;;14.81;51.99;98397.22;5060453;28;20041;-75
2023/06/05 05:51:01;;;;;;;6.88;2.30;;;;;;;14.67;52.02;98406.91;5062275;28;20017;-74
2023/06/05 05:53:26;;;;;;;2.80;2.20;;;;;;;14.84;52.14;98407.50;5012795;28;20048;-75
2023/06/05 05:55:51;;;;;;;4.75;2.20;;;;;;;15.09;51.68;98402.16;5048396;28;20021;-75
2023/06/05 05:58:18;;;;;;;3.92;2.17;;;;;;;15.15;52.27;98414.66;5052903;28;20047;-75
2023/06/05 06:00:43;;;;;;;4.68;2.15;;;;;;;15.36;51.29;98409.25;5033856;28;20017;-74
2023/06/05 06:03:09;;;;;;;5.90;2.40;;;;;;;15.63;51.54;98416.09;5042236;28;20067;-74
2023/06/05 06:05:35;;;;;;;4.30;2.50;;;;;;;15.82;50.96;98424.53;5040261;28;20027;-75
2023/06/05 06:08:01;;;;;;;3.85;2.20;;;;;;;15.90;50.17;98415.81;5055523;28;20032;-75
2023/06/05 06:10:27;;;;;;;5.05;2.42;;;;;;;15.95;50.55;98415.81;5053321;28;20478;-74
2023/06/05 06:12:53;;;;;;;4.97;2.30;;;;;;;16.03;50.47;98409.84;5039422;28;20045;-75
2023/06/05 06:15:18;;;;;;;3.75;2.47;;;;;;;16.38;49.88;98417.88;5053769;28;20025;-76
2023/06/05 06:17:43;;;;;;;3.92;2.35;;;;;;;16.43;49.13;98412.44;5056019;28;20039;-75
2023/06/05 06:20:12;;;;;;;4.28;2.00;;;;;;;16.81;47.85;98410.16;5056213;28;20024;-75
2023/06/05 06:22:38;;;;;;;4.65;2.22;;;;;;;16.52;47.97;98412.72;5055997;28;20486;-75
2023/06/05 06:25:04;;;;;;;4.18;2.10;;;;;;;16.72;49.36;98417.25;5055436;28;20021;-75
2023/06/05 06:27:29;;;;;;;3.30;2.40;;;;;;;16.63;49.09;98413.50;5040700;28;20036;-75
2023/06/05 06:29:55;;;;;;;4.95;2.60;;;;;;;16.79;49.47;98412.34;5036059;28;20556;-75
2023/06/05 06:32:22;;;;;;;5.20;2.42;;;;;;;16.84;49.25;98409.59;5053872;28;20107;-75
2023/06/05 06:34:47;;;;;;;3.08;2.20;;;;;;;16.91;50.04;98415.53;5038424;28;20029;-75
2023/06/05 06:37:14;;;;;;;5.88;2.08;;;;;;;16.99;48.93;98413.03;5045645;28;20041;-75
2023/06/05 06:39:41;;;;;;;4.18;2.33;;;;;;;17.08;48.81;98414.06;5032615;28;20029;-75
2023/06/05 06:42:06;;;;;;;2.60;2.05;;;;;;;17.37;49.26;98403.28;5043037;28;20167;-75
2023/06/05 06:44:32;;;;;;;5.28;2.30;;;;;;;17.42;49.70;98413.34;5037170;28;20022;-75
2023/06/05 06:46:58;;;;;;;3.95;2.20;;;;;;;17.60;48.89;98408.06;5048461;28;20040;-75
2023/06/05 06:49:23;;;;;;;4.90;2.03;;;;;;;17.91;49.20;98408.59;5043312;28;20025;-74
2023/06/05 06:51:49;;;;;;;5.70;2.38;;;;;;;18.04;49.15;98407.94;5039590;28;20061;-75
2023/06/05 06:54:14;;;;;;;3.80;2.17;;;;;;;18.27;48.29;98406.34;5046939;28;20433;-75
2023/06/05 06:56:39;;;;;;;4.30;2.05;;;;;;;18.30;48.12;98411.22;5036112;28;20108;-74
2023/06/05 06:59:13;;;;;;;3.85;2.20;;;;;;;18.54;47.69;98412.09;5035430;28;20474;-75
2023/06/05 07:01:44;;;;;;;5.30;2.00;;;;;;;18.76;46.26;98409.66;5047689;28;20462;-75
2023/06/05 07:04:09;;;;;;;4.30;2.40;;;;;;;18.85;45.02;98410.63;5047091;28;20515;-75
2023/06/05 07:06:34;;;;;;;2.72;2.05;;;;;;;19.39;47.41;98401.97;5053004;28;20017;-75
2023/06/05 07:09:00;;;;;;;3.78;2.42;;;;;;;19.15;45.38;98402.03;5068471;28;20064;-75
2023/06/05 07:11:26;;;;;;;6.57;2.30;;;;;;;19.25;44.94;98401.06;5055329;28;20025;-75
2023/06/05 07:13:52;;;;;;;5.25;2.38;;;;;;;19.41;43.98;98399.75;5043417;28;20394;-75
2023/06/05 07:16:18;;;;;;;4.43;2.33;;;;;;;19.63;44.50;98385.47;5046325;28;20047;-75
2023/06/05 07:18:43;;;;;;;4.57;2.45;;;;;;;19.66;44.16;98402.09;5034806;28;20461;-75
2023/06/05 07:21:09;;;;;;;4.28;2.13;;;;;;;19.49;44.21;98400.97;5043414;28;20028;-76
2023/06/05 07:23:34;;;;;;;4.47;2.40;;;;;;;19.71;44.30;98390.25;5042191;28;20041;-75
2023/06/05 07:26:00;;;;;;;4.03;1.95;;;;;;;19.55;44.10;98406.09;5033608;28;20100;-75
2023/06/05 07:28:25;;;;;;;3.53;2.22;;;;;;;20.05;38.59;98404.41;5034603;28;20086;-75
2023/06/05 07:30:51;;;;;;;5.07;2.20;;;;;;;20.46;36.79;98394.41;5018209;28;20525;-75
2023/06/05 07:33:16;;;;;;;5.32;2.22;;;;;;;20.80;34.94;98395.88;5032330;28;20048;-75
2023/06/05 07:35:42;;;;;;;2.63;2.10;;;;;;;20.93;34.73;98397.81;5038782;28;20021;-75
2023/06/05 07:38:08;;;;;;;2.78;2.00;;;;;;;20.91;35.39;98394.59;5043825;28;20082;-75
2023/06/05 07:40:33;;;;;;;3.63;2.20;;;;;;;21.27;35.55;98396.25;5054584;28;20032;-75
2023/06/05 07:42:59;;;;;;;4.70;2.20;;;;;;;21.38;35.08;98393.28;5023162;28;20036;-76
2023/06/05 07:45:24;;;;;;;4.45;2.40;;;;;;;21.41;35.76;98392.66;5034572;28;20025;-75
2023/06/05 07:47:50;;;;;;;5.20;2.35;;;;;;;21.34;35.61;98390.34;5017686;28;20036;-75
2023/06/05 07:50:15;;;;;;;2.67;2.15;;;;;;;21.43;34.83;98396.72;5034340;28;20083;-75
2023/06/05 07:52:41;;;;;;;5.00;2.30;;;;;;;21.55;34.12;98390.69;5029764;28;20037;-75
2023/06/05 07:55:07;;;;;;;8.40;2.13;;;;;;;21.30;34.72;98381.94;5036777;28;20403;-75
2023/06/05 07:57:33;;;;;;;4.88;2.40;;;;;;;21.31;35.53;98386.28;5028733;28;20049;-75
2023/06/05 07:59:58;;;;;;;3.10;2.65;;;;;;;21.67;34.89;98390.94;5034455;28;20028;-75
2023/06/05 08:02:24;;;;;;;7.18;2.28;;;;;;;21.47;35.65;98381.25;5034109;28;20029;-76
2023/06/05 08:04:49;;;;;;;3.45;2.30;;;;;;;21.43;35.85;98380.25;5017373;28;20051;-75
2023/06/05 08:07:15;;;;;;;4.63;2.70;;;;;;;21.46;35.57;98385.13;5045884;28;20070;-75
2023/06/05 08:09:41;;;;;;;3.42;2.40;;;;;;;21.60;35.31;98380.41;5037355;28;20077;-75
2023/06/05 08:12:06;;;;;;;3.13;2.17;;;;;;;21.55;35.38;98393.41;5037388;28;20037;-76
2023/06/05 08:14:34;;;;;;;3.95;2.63;;;;;;;21.60;35.96;98391.38;5040911;28;20031;-76
2023/06/05 08:16:59;;;;;;;5.78;2.72;;;;;;;21.30;36.54;98394.84;5020788;28;20415;-75
2023/06/05 08:19:24;;;;;;;4.47;2.50;;;;;;;21.67;36.56;98391.75;5021305;28;20486;-75
2023/06/05 08:21:52;;;;;;;4.65;2.63;;;;;;;21.26;37.52;98391.09;5023618;28;20037;-76
2023/06/05 08:24:17;;;;;;;3.92;2.58;;;;;;;21.46;36.96;98398.84;5033690;28;20020;-75
2023/06/05 08:26:42;;;;;;;6.15;2.75;;;;;;;21.40;37.64;98397.31;5065335;28;20041;-75
2023/06/05 08:29:08;;;;;;;3.83;2.78;;;;;;;21.48;37.48;98398.50;5071740;28;20031;-75
2023/06/05 08:31:36;;;;;;;4.18;2.85;;;;;;;21.75;36.94;98392.94;5071752;28;20142;-75
2023/06/05 08:34:01;;;;;;;4.07;2.92;;;;;;;22.11;36.18;98390.13;5043990;28;20022;-75
2023/06/05 08:36:27;;;;;;;4.25;2.60;;;;;;;21.96;36.15;98385.84;5047450;28;20044;-75
2023/06/05 08:38:52;;;;;;;4.28;2.80;;;;;;;21.46;37.02;98374.16;5036898;28;20133;-75
2023/06/05 08:41:18;;;;;;;4.72;3.08;;;;;;;21.52;37.65;98383.88;5053586;28;20047;-75
2023/06/05 08:43:44;;;;;;;6.55;2.95;;;;;;;21.68;37.09;98387.88;5000362;28;20051;-75
2023/06/05 08:46:11;;;;;;;6.13;2.60;;;;;;;22.07;37.32;98378.97;5033870;28;20442;-75
2023/06/05 08:48:47;;;;;;;6.38;2.78;;;;;;;21.75;37.49;98379.22;5043376;28;20483;-75
2023/06/05 08:51:17;;;;;;;4.97;3.03;;;;;;;21.38;37.66;98377.63;5048565;28;20111;-76
2023/06/05 08:53:56;;;;;;;5.07;2.80;;;;;;;22.08;37.94;98382.53;5052935;28;20040;-75
2023/06/05 08:56:22;;;;;;;4.55;2.92;;;;;;;22.25;37.79;98368.88;5020933;28;20037;-75
2023/06/05 08:58:48;;;;;;;9.43;3.10;;;;;;;21.97;37.51;98374.56;5044788;28;20071;-75
2023/06/05 09:01:16;;;;;;;3.97;2.65;;;;;;;22.02;37.45;98371.69;5033222;28;20499;-75
2023/06/05 09:03:42;;;;;;;5.97;3.00;;;;;;;21.69;38.72;98378.53;5033033;28;20028;-76
2023/06/05 09:06:10;;;;;;;7.28;3.10;;;;;;;22.03;37.09;98367.81;5056308;28;20101;-76
2023/06/05 09:08:36;;;;;;;4.35;3.20;;;;;;;22.51;37.39;98361.56;5038390;28;20117;-75
2023/06/05 09:11:21;;;;;;;6.78;3.10;;;;;;;22.58;37.63;98367.41;5025544;28;20076;-75
2023/06/05 09:13:47;;;;;;;4.65;3.50;;;;;;;22.65;36.69;98345.81;5027391;28;20047;-75
2023/06/05 09:16:13;;;;;;;5.63;3.50;;;;;;;22.82;35.88;98350.56;5045424;28;20029;-76
2023/06/05 09:18:53;;;;;;;3.63;2.88;;;;;;;22.52;36.69;98357.72;5033387;28;20040;-75
2023/06/05 09:21:18;;;;;;;7.82;3.00;;;;;;;23.10;36.95;98346.41;5033556;28;20048;-75
2023/06/05 09:23:44;;;;;;;5.85;3.50;;;;;;;23.22;34.50;98350.09;5045567;28;20032;-75
2023/06/05 09:26:12;;;;;;;5.55;3.80;;;;;;;23.57;34.29;98350.16;5026372;28;20136;-75
2023/06/05 09:28:52;;;;;;;5.88;3.47;;;;;;;23.66;35.72;98349.00;5026657;28;20035;-75
2023/06/05 09:31:18;;;;;;;4.65;3.20;;;;;;;23.59;35.70;98342.38;5036580;28;20036;-75
2023/06/05 09:33:54;;;;;;;7.50;3.50;;;;;;;22.90;36.27;98334.06;5035740;28;20056;-76
2023/06/05 09:36:19;;;;;;;5.18;3.40;;;;;;;23.11;36.51;98337.00;5053101;28;20044;-76
2023/06/05 09:38:45;;;;;;;5.07;3.42;;;;;;;23.59;35.59;98334.94;5036320;28;20035;-76
2023/06/05 09:41:14;;;;;;;5.15;3.70;;;;;;;23.16;35.89;98345.91;5040501;28;20033;-76
2023/06/05 09:43:39;;;;;;;7.55;3.65;;;;;;;23.05;36.27;98344.63;5029289;28;20087;-75
2023/06/05 09:46:10;;;;;;;8.40;3.92;;;;;;;23.29;36.57;98328.44;5059705;28;20402;-76
2023/06/05 09:48:36;;;;;;;5.15;3.88;;;;;;;23.26;36.54;98334.59;5007426;28;20060;-75
2023/06/05 09:51:11;;;;;;;7.78;4.07;;;;;;;23.91;36.01;98333.56;5037467;28;20024;-75
2023/06/05 09:53:41;;;;;;;5.75;4.28;;;;;;;23.50;36.83;98330.59;5039534;28;20064;-75
2023/06/05 09:56:12;;;;;;;7.22;4.30;;;;;;;23.35;36.08;98332.69;5039161;28;20483;-75
2023/06/05 09:58:37;;;;;;;7.82;4.90;;;;;;;23.47;36.78;98333.97;5029577;28;20028;-76
2023/06/05 10:01:06;;;;;;;5.97;4.30;;;;;;;23.55;35.34;98330.41;5070325;28;20493;-75
2023/06/05 10:03:36;;;;;;;7.32;4.38;;;;;;;24.54;34.40;98322.50;5045474;28;20063;-76
2023/06/05 10:06:02;;;;;;;5.88;4.90;;;;;;;24.63;34.12;98312.25;5056121;28;20032;-75
2023/06/05 10:08:28;;;;;;;7.68;4.68;;;;;;;24.43;34.88;98318.53;5029262;28;20116;-75
2023/06/05 10:10:53;;;;;;;6.07;4.50;;;;;;;24.50;35.08;98313.31;5053891;28;20032;-76
2023/06/05 10:13:19;;;;;;;7.80;4.60;;;;;;;24.12;34.70;98311.69;5042243;28;20475;-75
2023/06/05 10:15:45;;;;;;;5.65;4.70;;;;;;;24.55;34.52;98304.84;5013063;28;20072;-75
2023/06/05 10:18:11;;;;;;;6.60;4.70;;;;;;;24.77;34.61;98294.69;5010098;28;20163;-76
2023/06/05 10:20:37;;;;;;;7.05;4.75;;;;;;;23.79;36.02;98314.19;5035975;28;20522;-76
2023/06/05 10:23:03;;;;;;;7.95;4.70;;;;;;;24.16;35.50;98302.44;5029213;28;20046;-75
2023/06/05 10:25:30;;;;;;;6.15;4.68;;;;;;;24.53;35.24;98293.34;5049091;28;20151;-76
2023/06/05 10:28:25;;;;;;;6.30;4.68;;;;;;;24.74;36.11;98291.44;5026310;28;20025;-75
2023/06/05 10:31:15;;;;;;;6.37;4.77;;;;;;;24.96;35.46;98293.09;5007512;28;20041;-75
2023/06/05 10:33:56;;;;;;;10.85;4.72;;;;;;;23.97;36.30;98307.47;5035905;28;20506;-75
2023/06/05 10:36:27;;;;;;;8.18;4.68;;;;;;;24.26;37.19;98302.06;5043285;28;20033;-75
2023/06/05 10:38:52;;;;;;;7.53;4.50;;;;;;;24.56;37.02;98300.94;5035605;28;20111;-75
2023/06/05 10:41:18;;;;;;;5.00;4.05;;;;;;;25.19;35.11;98296.31;5046042;28;20434;-76
2023/06/05 10:43:52;;;;;;;8.75;5.13;;;;;;;24.53;35.39;98295.28;5055090;28;20074;-76
2023/06/05 10:46:27;;;;;;;8.05;4.88;;;;;;;24.67;34.72;98296.66;5045522;28;20029;-75
2023/06/05 10:49:07;;;;;;;5.70;4.75;;;;;;;24.68;35.44;98287.28;5057755;28;20033;-75
2023/06/05 10:51:39;;;;;;;6.05;4.65;;;;;;;25.50;36.26;98282.94;5053245;28;20487;-75
2023/06/05 10:54:06;;;;;;;7.47;5.32;;;;;;;24.92;36.76;98296.88;5018284;28;20091;-75
2023/06/05 10:57:02;;;;;;;7.55;5.35;;;;;;;25.46;35.68;98295.00;5040689;28;20046;-76
2023/06/05 10:59:33;;;;;;;6.55;4.90;;;;;;;24.73;34.81;98284.31;5048474;28;20116;-75
2023/06/05 11:02:14;;;;;;;7.20;4.93;;;;;;;25.76;35.32;98297.28;5009904;28;20112;-76
2023/06/05 11:04:42;;;;;;;7.30;4.95;;;;;;;25.62;34.29;98288.50;5052474;28;20063;-75
2023/06/05 11:07:24;;;;;;;6.68;5.30;;;;;;;25.11;34.64;98289.72;5053013;28;20025;-75
2023/06/05 11:10:02;;;;;;;7.40;5.40;;;;;;;24.89;35.72;98292.00;5035190;28;20037;-76
2023/06/05 11:12:47;;;;;;;6.72;5.03;;;;;;;25.25;35.23;98273.72;5051158;28;20070;-75
2023/06/05 11:15:33;;;;;;;7.93;5.32;;;;;;;26.14;33.49;98272.16;5029793;28;20059;-76
2023/06/05 11:18:34;;;;;;;10.73;5.13;;;;;;;26.64;34.06;98274.59;5026079;28;20037;-76
2023/06/05 11:21:00;;;;;;;5.57;4.88;;;;;;;26.52;34.42;98278.16;5028720;28;20189;-75
2023/06/05 11:23:27;;;;;;;6.68;4.85;;;;;;;24.81;36.49;98265.34;5011291;28;20472;-75
2023/06/05 11:25:57;;;;;;;6.20;4.68;;;;;;;24.73;37.46;98273.31;5005879;28;20071;-75
2023/06/05 11:28:42;;;;;;;6.45;5.05;;;;;;;24.05;38.02;98268.13;5034788;28;20491;-76
2023/06/05 11:31:08;;;;;;;6.75;5.10;;;;;;;23.79;38.39;98267.41;5028086;28;20033;-76
2023/06/05 11:33:34;;;;;;;8.02;5.00;;;;;;;24.47;38.28;98269.91;5043963;28;20039;-75
2023/06/05 11:36:04;;;;;;;6.72;5.03;;;;;;;24.44;38.26;98278.81;5035126;28;20036;-75
2023/06/05 11:38:29;;;;;;;6.45;5.03;;;;;;;24.28;38.54;98266.75;5037810;28;20081;-75
2023/06/05 11:40:55;;;;;;;6.15;5.22;;;;;;;24.46;37.60;98271.03;5073125;28;20421;-75
2023/06/05 11:43:21;;;;;;;6.85;5.07;;;;;;;25.75;36.27;98265.31;5021035;28;20040;-76
2023/06/05 11:45:52;;;;;;;6.78;4.80;;;;;;;25.18;36.59;98267.16;5025210;28;20104;-75
2023/06/05 11:48:18;;;;;;;8.40;5.13;;;;;;;24.87;37.05;98262.06;5020551;28;20028;-76
2023/06/05 11:51:02;;;;;;;6.43;5.03;;;;;;;24.90;37.35;98255.84;5029095;28;20024;-76
2023/06/05 11:53:30;;;;;;;7.15;5.40;;;;;;;25.46;35.62;98257.19;5007855;28;20032;-76